createdAt,value
2017-10-05T00:01:06.141Z,6.10
2017-10-05T00:03:33.580Z,8.03
2017-10-05T00:06:01.065Z,7.20
2017-10-05T00:08:28.518Z,11.30
2017-10-05T00:10:55.986Z,7.03
2017-10-05T00:13:23.424Z,6.67
2017-10-05T00:15:50.894Z,5.67
2017-10-05T00:18:18.621Z,6.13
2017-10-05T00:20:46.066Z,8.13
2017-10-05T00:23:13.541Z,5.53
2017-10-05T00:25:40.980Z,9.03
2017-10-05T00:28:08.436Z,6.63
2017-10-05T00:30:36.724Z,7.80
2017-10-05T00:33:04.165Z,5.30
2017-10-05T00:35:31.632Z,8.90
2017-10-05T00:37:59.072Z,5.73
2017-10-05T00:40:27.303Z,5.43
2017-10-05T00:42:54.766Z,4.90
2017-10-05T00:45:22.234Z,5.23
2017-10-05T00:47:49.704Z,7.60
2017-10-05T00:50:17.153Z,4.60
2017-10-05T00:52:44.629Z,7.33
2017-10-05T00:55:12.837Z,5.30
2017-10-05T00:57:40.275Z,8.60
2017-10-05T01:00:08.513Z,8.73
2017-10-05T01:02:35.976Z,5.03
2017-10-05T01:05:03.416Z,6.13
2017-10-05T01:07:31.996Z,5.13
2017-10-05T01:09:59.467Z,5.00
2017-10-05T01:12:26.922Z,9.90
2017-10-05T01:14:54.369Z,5.87
2017-10-05T01:17:21.828Z,5.53
2017-10-05T01:19:50.057Z,5.63
2017-10-05T01:22:17.501Z,9.97
2017-10-05T01:24:45.724Z,5.83
2017-10-05T01:27:13.173Z,8.10
2017-10-05T01:29:40.642Z,6.83
2017-10-05T01:32:08.101Z,6.30
2017-10-05T01:34:35.541Z,7.20
2017-10-05T01:37:03.004Z,4.47
2017-10-05T01:39:30.457Z,9.50
2017-10-05T01:42:12.780Z,8.00
2017-10-05T01:44:40.225Z,3.97
2017-10-05T01:47:07.685Z,4.03
2017-10-05T01:49:35.128Z,7.73
2017-10-05T01:52:02.585Z,8.40
2017-10-05T01:54:30.068Z,5.70
2017-10-05T01:56:57.509Z,4.30
2017-10-05T01:59:24.941Z,6.90
2017-10-05T02:01:52.396Z,6.47
2017-10-05T02:04:20.604Z,5.40
2017-10-05T02:06:48.071Z,4.63
2017-10-05T02:09:15.518Z,8.63
2017-10-05T02:11:42.977Z,6.57
2017-10-05T02:14:10.430Z,7.27
2017-10-05T02:16:37.885Z,5.40
2017-10-05T02:19:05.334Z,6.43
2017-10-05T02:21:32.776Z,11.50
2017-10-05T02:24:00.996Z,5.60
2017-10-05T02:26:28.441Z,6.63
2017-10-05T02:28:55.892Z,6.80
2017-10-05T02:31:23.332Z,6.20
2017-10-05T02:33:50.791Z,8.93
2017-10-05T02:36:18.233Z,8.00
2017-10-05T02:38:46.452Z,7.83
2017-10-05T02:41:13.897Z,6.97
2017-10-05T02:43:41.356Z,7.30
2017-10-05T02:46:08.806Z,10.87
2017-10-05T02:48:36.273Z,7.00
2017-10-05T02:51:03.701Z,6.90
2017-10-05T02:53:31.925Z,6.93
2017-10-05T02:55:59.372Z,8.60
2017-10-05T02:58:26.825Z,8.90
2017-10-05T03:00:54.289Z,9.90
2017-10-05T03:03:21.724Z,7.90
2017-10-05T03:05:49.187Z,10.47
2017-10-05T03:08:16.636Z,8.90
2017-10-05T03:10:44.104Z,12.93
2017-10-05T03:13:11.577Z,9.20
2017-10-05T03:15:39.021Z,10.07
2017-10-05T03:18:06.501Z,9.17
2017-10-05T03:20:33.945Z,11.00
2017-10-05T03:23:01.700Z,8.87
2017-10-05T03:25:29.166Z,9.87
2017-10-05T03:27:56.616Z,8.50
2017-10-05T03:30:24.092Z,9.90
2017-10-05T03:32:51.533Z,10.63
2017-10-05T03:35:18.982Z,12.70
2017-10-05T03:37:46.432Z,9.30
2017-10-05T03:40:13.881Z,12.37
2017-10-05T03:42:41.341Z,11.27
2017-10-05T03:45:08.788Z,10.80
2017-10-05T03:47:37.020Z,15.50
2017-10-05T03:50:04.465Z,10.30
2017-10-05T03:52:31.933Z,10.77
2017-10-05T03:54:59.401Z,14.93
2017-10-05T03:57:26.857Z,14.27
2017-10-05T03:59:54.326Z,11.23
2017-10-05T04:02:21.773Z,12.50
2017-10-05T04:04:49.233Z,14.60
2017-10-05T04:07:16.681Z,14.17
2017-10-05T04:09:44.144Z,17.63
2017-10-05T04:12:11.592Z,11.83
2017-10-05T04:14:39.348Z,12.13
2017-10-05T04:17:06.787Z,11.53
2017-10-05T04:19:34.257Z,13.57
2017-10-05T04:22:01.704Z,14.10
2017-10-05T04:24:29.168Z,13.90
2017-10-05T04:26:56.637Z,14.63
2017-10-05T04:29:24.093Z,11.83
2017-10-05T04:31:51.565Z,14.37
2017-10-05T04:34:19.019Z,11.23
2017-10-05T04:36:46.461Z,11.77
2017-10-05T04:39:13.920Z,12.83
2017-10-05T04:41:41.403Z,14.63
2017-10-05T04:44:08.854Z,17.43
2017-10-05T04:46:36.297Z,13.30
2017-10-05T04:49:03.757Z,14.20
2017-10-05T04:51:31.224Z,12.23
2017-10-05T04:53:58.682Z,11.37
2017-10-05T04:56:26.141Z,14.73
2017-10-05T04:58:53.588Z,12.13
2017-10-05T05:01:21.061Z,15.53
2017-10-05T05:03:48.508Z,10.50
2017-10-05T05:06:15.973Z,13.67
2017-10-05T05:08:43.437Z,10.43
2017-10-05T05:11:10.884Z,12.23
2017-10-05T05:13:38.349Z,12.50
2017-10-05T05:16:05.841Z,13.53
2017-10-05T05:18:33.289Z,15.43
2017-10-05T05:21:00.766Z,12.03
2017-10-05T05:23:29.375Z,13.60
2017-10-05T05:25:56.816Z,12.17
2017-10-05T05:28:24.283Z,13.37
2017-10-05T05:30:51.738Z,12.47
2017-10-05T05:33:19.198Z,13.23
2017-10-05T05:35:46.645Z,11.70
2017-10-05T05:38:14.145Z,10.93
2017-10-05T05:40:41.892Z,11.63
2017-10-05T05:43:09.348Z,19.90
2017-10-05T05:45:36.804Z,11.83
2017-10-05T05:48:04.284Z,12.07
2017-10-05T05:50:31.758Z,13.27
2017-10-05T05:52:59.217Z,16.10
2017-10-05T05:55:26.673Z,13.63
2017-10-05T05:57:54.152Z,14.23
2017-10-05T06:00:21.621Z,17.80
2017-10-05T06:02:49.094Z,13.60
2017-10-05T06:05:16.549Z,15.93
2017-10-05T06:07:44.004Z,17.37
2017-10-05T06:10:11.460Z,13.00
2017-10-05T06:12:39.669Z,15.27
2017-10-05T06:15:07.128Z,17.47
2017-10-05T06:17:34.580Z,13.50
2017-10-05T06:20:02.060Z,11.40
2017-10-05T06:22:29.519Z,14.30
2017-10-05T06:24:56.964Z,11.33
2017-10-05T06:27:24.438Z,14.10
2017-10-05T06:29:51.879Z,14.43
2017-10-05T06:32:19.381Z,12.47
2017-10-05T06:34:47.904Z,12.47
2017-10-05T06:37:15.351Z,14.43
2017-10-05T06:39:42.820Z,10.20
2017-10-05T06:42:10.280Z,13.90
2017-10-05T06:44:37.740Z,14.23
2017-10-05T06:47:05.201Z,15.47
2017-10-05T06:49:32.696Z,16.03
2017-10-05T06:52:00.144Z,13.13
2017-10-05T06:54:27.593Z,17.17
2017-10-05T06:56:55.054Z,13.97
2017-10-05T06:59:22.506Z,16.10
2017-10-05T07:01:49.973Z,17.60
2017-10-05T07:04:17.421Z,11.40
2017-10-05T07:06:44.884Z,12.67
2017-10-05T07:09:12.341Z,11.37
2017-10-05T07:11:39.804Z,12.03
2017-10-05T07:14:07.248Z,13.90
2017-10-05T07:16:34.708Z,13.00
2017-10-05T07:19:02.448Z,13.10
2017-10-05T07:21:29.912Z,11.80
2017-10-05T07:23:57.377Z,11.70
2017-10-05T07:26:24.841Z,10.23
2017-10-05T07:28:52.320Z,11.33
2017-10-05T07:31:19.760Z,11.70
2017-10-05T07:33:47.234Z,10.63
2017-10-05T07:36:14.690Z,10.00
2017-10-05T07:38:42.161Z,10.10
2017-10-05T07:41:09.624Z,11.70
2017-10-05T07:43:37.106Z,8.63
2017-10-05T07:46:05.312Z,8.63
2017-10-05T07:48:32.761Z,10.47
2017-10-05T07:51:01.124Z,10.23
2017-10-05T07:53:28.564Z,9.87
2017-10-05T07:55:56.789Z,9.77
2017-10-05T07:58:24.247Z,8.33
2017-10-05T08:00:51.705Z,8.40
2017-10-05T08:03:19.172Z,8.30
2017-10-05T08:05:46.632Z,8.33
2017-10-05T08:08:14.082Z,8.70
2017-10-05T08:10:41.828Z,7.20
2017-10-05T08:13:09.268Z,6.67
2017-10-05T08:15:36.745Z,10.97
2017-10-05T08:18:04.209Z,7.40
2017-10-05T08:20:31.656Z,7.83
2017-10-05T08:22:59.128Z,7.60
2017-10-05T08:25:26.568Z,8.40
2017-10-05T08:27:54.036Z,8.70
2017-10-05T08:30:21.497Z,5.80
2017-10-05T08:32:48.949Z,5.40
2017-10-05T08:35:16.412Z,5.77
2017-10-05T08:37:43.854Z,5.63
2017-10-05T08:40:11.317Z,6.37
2017-10-05T08:42:38.764Z,7.07
2017-10-05T08:45:06.232Z,6.93
2017-10-05T08:47:33.672Z,5.77
2017-10-05T08:50:01.116Z,6.07
2017-10-05T08:52:29.357Z,6.80
2017-10-05T08:54:56.824Z,4.77
2017-10-05T08:57:24.297Z,5.10
2017-10-05T08:59:51.747Z,6.03
2017-10-05T09:02:19.184Z,4.07
2017-10-05T09:04:46.647Z,6.23
2017-10-05T09:07:14.089Z,4.80
2017-10-05T09:09:41.569Z,4.67
2017-10-05T09:12:09.021Z,4.90
2017-10-05T09:14:36.489Z,5.13
2017-10-05T09:17:03.949Z,4.40
2017-10-05T09:19:31.418Z,5.50
2017-10-05T09:21:59.636Z,5.63
2017-10-05T09:24:27.120Z,4.43
2017-10-05T09:26:54.564Z,4.47
2017-10-05T09:29:22.020Z,6.90
2017-10-05T09:31:49.482Z,4.00
2017-10-05T09:34:16.945Z,5.30
2017-10-05T09:36:45.172Z,4.67
2017-10-05T09:39:13.393Z,4.57
2017-10-05T09:41:40.893Z,4.83
2017-10-05T09:44:08.325Z,6.20
2017-10-05T09:46:36.155Z,4.60
2017-10-05T09:49:03.615Z,5.40
2017-10-05T09:51:31.056Z,6.47
2017-10-05T09:53:58.533Z,5.47
2017-10-05T09:56:25.977Z,7.83
2017-10-05T09:58:53.424Z,6.33
2017-10-05T10:01:21.661Z,5.50
2017-10-05T10:03:49.101Z,6.73
2017-10-05T10:06:16.565Z,4.70
2017-10-05T10:08:44.013Z,5.23
2017-10-05T10:11:11.480Z,8.23
2017-10-05T10:13:39.216Z,5.33
2017-10-05T10:16:06.664Z,4.43
2017-10-05T10:18:34.109Z,5.50
2017-10-05T10:21:02.334Z,5.03
2017-10-05T10:23:30.468Z,4.40
2017-10-05T10:25:57.933Z,5.70
2017-10-05T10:28:25.386Z,4.63
2017-10-05T10:30:52.858Z,5.37
2017-10-05T10:33:20.296Z,5.37
2017-10-05T10:35:47.759Z,6.10
2017-10-05T10:38:15.212Z,6.40
2017-10-05T10:40:42.657Z,5.00
2017-10-05T10:43:10.885Z,7.57
2017-10-05T10:45:38.336Z,5.67
2017-10-05T10:48:05.796Z,5.47
2017-10-05T10:50:33.237Z,5.60
2017-10-05T10:53:00.711Z,5.57
2017-10-05T10:55:28.156Z,4.30
2017-10-05T10:57:55.605Z,4.70
2017-10-05T11:00:23.097Z,4.60
2017-10-05T11:02:50.824Z,4.70
2017-10-05T11:05:18.293Z,3.97
2017-10-05T11:07:45.741Z,4.93
2017-10-05T11:10:13.200Z,5.43
2017-10-05T11:12:40.656Z,3.90
2017-10-05T11:15:08.130Z,5.47
2017-10-05T11:17:35.572Z,3.97
2017-10-05T11:20:03.032Z,4.50
2017-10-05T11:22:30.513Z,3.67
2017-10-05T11:24:58.004Z,3.10
2017-10-05T11:27:25.430Z,3.80
2017-10-05T11:29:52.906Z,3.80
2017-10-05T11:32:20.349Z,4.23
2017-10-05T11:34:47.794Z,3.57
2017-10-05T11:37:15.257Z,3.37
2017-10-05T11:39:42.709Z,3.73
2017-10-05T11:42:10.161Z,3.83
2017-10-05T11:44:37.631Z,3.07
2017-10-05T11:47:05.081Z,4.00
2017-10-05T11:49:32.543Z,3.77
2017-10-05T11:52:00.009Z,3.70
2017-10-05T11:54:27.745Z,3.43
2017-10-05T11:56:55.216Z,3.57
2017-10-05T11:59:22.660Z,2.43
2017-10-05T12:01:50.100Z,2.50
2017-10-05T12:04:17.582Z,2.30
2017-10-05T12:06:45.341Z,1.83
2017-10-05T12:09:12.780Z,3.00
2017-10-05T12:11:40.220Z,2.03
2017-10-05T12:14:08.443Z,2.40
2017-10-05T12:16:35.888Z,2.27
2017-10-05T12:19:03.346Z,1.63
2017-10-05T12:21:30.792Z,2.40
2017-10-05T12:23:58.249Z,1.67
2017-10-05T12:26:25.697Z,2.47
2017-10-05T12:28:53.164Z,2.10
2017-10-05T12:31:20.606Z,3.20
2017-10-05T12:33:49.421Z,2.33
2017-10-05T12:36:16.880Z,3.00
2017-10-05T12:38:44.361Z,4.63
2017-10-05T12:41:11.809Z,2.90
2017-10-05T12:43:39.248Z,2.47
2017-10-05T12:46:06.715Z,4.90
2017-10-05T12:48:34.152Z,4.60
2017-10-05T12:51:01.624Z,2.70
2017-10-05T12:53:29.077Z,2.67
2017-10-05T12:55:56.521Z,3.73
2017-10-05T12:58:24.753Z,5.80
2017-10-05T13:00:52.829Z,3.47
2017-10-05T13:03:20.278Z,2.73
2017-10-05T13:05:47.736Z,3.23
2017-10-05T13:08:15.205Z,3.37
2017-10-05T13:10:42.646Z,4.77
2017-10-05T13:13:10.124Z,3.20
2017-10-05T13:15:37.561Z,2.93
2017-10-05T13:18:05.018Z,4.83
2017-10-05T13:20:32.489Z,3.77
2017-10-05T13:22:59.921Z,4.90
2017-10-05T13:25:27.386Z,3.77
2017-10-05T13:27:55.053Z,4.13
2017-10-05T13:30:22.529Z,4.40
2017-10-05T13:32:49.985Z,12.50
2017-10-05T13:35:17.433Z,4.43
2017-10-05T13:37:44.917Z,4.47
2017-10-05T13:40:12.753Z,4.17
2017-10-05T13:42:40.190Z,2.97
2017-10-05T13:45:07.642Z,3.70
2017-10-05T13:47:35.094Z,2.30
2017-10-05T13:50:02.550Z,2.50
2017-10-05T13:52:29.988Z,3.00
2017-10-05T13:54:57.460Z,3.97
2017-10-05T13:57:24.904Z,2.27
2017-10-05T13:59:52.376Z,2.60
2017-10-05T14:02:19.838Z,2.20
2017-10-05T14:04:47.280Z,3.23
2017-10-05T14:07:14.764Z,1.30
2017-10-05T14:09:42.196Z,2.90
2017-10-05T14:12:09.651Z,0.90
2017-10-05T14:14:37.857Z,1.40
2017-10-05T14:17:05.333Z,1.23
2017-10-05T14:19:32.781Z,1.37
2017-10-05T14:22:00.223Z,1.63
2017-10-05T14:24:27.705Z,6.50
2017-10-05T14:26:55.173Z,2.70
2017-10-05T14:29:22.612Z,1.80
2017-10-05T14:31:50.072Z,1.77
2017-10-05T14:34:17.516Z,1.40
2017-10-05T14:36:44.970Z,0.80
2017-10-05T14:39:12.433Z,1.23
2017-10-05T14:41:39.888Z,0.80
2017-10-05T14:44:07.364Z,1.53
2017-10-05T14:46:34.840Z,3.03
2017-10-05T14:49:02.285Z,2.50
2017-10-05T14:51:29.765Z,2.83
2017-10-05T14:53:57.215Z,0.60
2017-10-05T14:56:24.665Z,2.90
2017-10-05T14:58:52.142Z,2.13
2017-10-05T15:01:19.593Z,0.67
2017-10-05T15:03:47.068Z,1.70
2017-10-05T15:06:15.282Z,0.63
2017-10-05T15:08:42.731Z,0.80
2017-10-05T15:11:10.182Z,0.80
2017-10-05T15:13:37.624Z,1.17
2017-10-05T15:16:05.845Z,3.13
2017-10-05T15:18:33.674Z,0.60
2017-10-05T15:21:01.150Z,0.93
2017-10-05T15:23:28.588Z,1.13
2017-10-05T15:25:56.053Z,3.80
2017-10-05T15:28:23.494Z,0.97
2017-10-05T15:30:51.716Z,0.70
2017-10-05T15:33:19.173Z,1.43
2017-10-05T15:35:46.642Z,3.50
2017-10-05T15:38:14.140Z,1.37
2017-10-05T15:40:42.343Z,0.60
2017-10-05T15:43:09.804Z,0.67
2017-10-05T15:45:37.282Z,0.80
2017-10-05T15:48:04.718Z,0.43
2017-10-05T15:50:32.169Z,0.60
2017-10-05T15:52:59.619Z,0.97
2017-10-05T15:55:27.104Z,1.10
2017-10-05T15:57:54.544Z,0.93
2017-10-05T16:00:21.982Z,2.70
2017-10-05T16:02:50.203Z,0.80
2017-10-05T16:05:17.638Z,2.00
2017-10-05T16:07:45.084Z,0.90
2017-10-05T16:10:12.565Z,2.00
2017-10-05T16:12:40.010Z,1.37
2017-10-05T16:15:07.458Z,0.93
2017-10-05T16:17:34.910Z,1.83
2017-10-05T16:20:02.352Z,0.80
2017-10-05T16:22:30.569Z,0.90
2017-10-05T16:24:58.010Z,0.70
2017-10-05T16:27:25.453Z,0.70
2017-10-05T16:29:53.665Z,4.63
2017-10-05T16:32:21.117Z,3.23
2017-10-05T16:34:48.556Z,0.70
2017-10-05T16:37:16.008Z,1.10
2017-10-05T16:39:43.449Z,1.50
2017-10-05T16:42:11.677Z,2.60
2017-10-05T16:44:39.120Z,0.90
2017-10-05T16:47:06.597Z,1.23
2017-10-05T16:49:34.032Z,1.53
2017-10-05T16:52:01.473Z,4.40
2017-10-05T16:54:28.937Z,1.53
2017-10-05T16:56:56.368Z,2.20
2017-10-05T16:59:24.609Z,2.97
2017-10-05T17:01:52.355Z,3.07
2017-10-05T17:04:19.785Z,1.70
2017-10-05T17:06:47.245Z,1.27
2017-10-05T17:09:15.826Z,7.13
2017-10-05T17:11:44.057Z,2.00
2017-10-05T17:14:11.508Z,4.33
2017-10-05T17:16:38.948Z,1.67
2017-10-05T17:19:06.400Z,3.20
2017-10-05T17:21:33.845Z,2.63
2017-10-05T17:24:01.296Z,4.43
2017-10-05T17:26:28.728Z,2.40
2017-10-05T17:28:56.943Z,2.00
2017-10-05T17:31:24.420Z,1.53
2017-10-05T17:33:51.849Z,3.83
2017-10-05T17:36:19.328Z,1.70
2017-10-05T17:38:46.828Z,1.43
2017-10-05T17:41:15.037Z,2.10
2017-10-05T17:43:42.489Z,2.77
2017-10-05T17:46:09.929Z,1.47
2017-10-05T17:48:38.440Z,2.00
2017-10-05T17:51:05.877Z,2.53
2017-10-05T17:53:34.092Z,1.70
2017-10-05T17:56:01.554Z,1.67
2017-10-05T17:58:29.754Z,1.57
2017-10-05T18:00:57.208Z,2.70
2017-10-05T18:03:24.648Z,1.93
2017-10-05T18:05:52.103Z,2.03
2017-10-05T18:08:19.540Z,2.07
2017-10-05T18:10:47.011Z,3.33
2017-10-05T18:13:14.448Z,1.83
2017-10-05T18:15:41.884Z,3.00
2017-10-05T18:18:10.125Z,3.47
2017-10-05T18:20:37.853Z,3.40
2017-10-05T18:23:05.293Z,3.40
2017-10-05T18:25:32.752Z,5.23
2017-10-05T18:28:00.194Z,4.10
2017-10-05T18:30:28.505Z,2.83
2017-10-05T18:32:55.968Z,2.10
2017-10-05T18:35:23.414Z,3.10
2017-10-05T18:37:50.853Z,4.40
2017-10-05T18:40:18.303Z,1.67
2017-10-05T18:42:46.508Z,2.93
2017-10-05T18:45:13.965Z,4.07
2017-10-05T18:47:41.445Z,4.83
2017-10-05T18:50:08.887Z,3.30
2017-10-05T18:52:36.340Z,2.93
2017-10-05T18:55:03.808Z,6.60
2017-10-05T18:57:31.250Z,2.10
2017-10-05T18:59:58.695Z,1.60
2017-10-05T19:02:26.179Z,2.10
2017-10-05T19:04:53.622Z,2.07
2017-10-05T19:07:21.076Z,4.00
2017-10-05T19:09:48.512Z,2.90
2017-10-05T19:12:16.748Z,1.97
2017-10-05T19:14:44.184Z,3.20
2017-10-05T19:17:11.620Z,2.20
2017-10-05T19:19:39.077Z,1.93
2017-10-05T19:22:06.516Z,6.20
2017-10-05T19:24:34.751Z,5.03
2017-10-05T19:27:02.189Z,3.73
2017-10-05T19:29:29.632Z,3.20
2017-10-05T19:31:57.100Z,5.30
2017-10-05T19:34:24.536Z,4.13
2017-10-05T19:36:52.416Z,2.50
2017-10-05T19:39:19.874Z,1.93
2017-10-05T19:41:47.317Z,4.63
2017-10-05T19:44:14.789Z,5.37
2017-10-05T19:46:42.229Z,2.30
2017-10-05T19:49:10.424Z,1.63
2017-10-05T19:51:37.885Z,1.77
2017-10-05T19:54:05.324Z,4.10
2017-10-05T19:56:32.777Z,1.83
2017-10-05T19:59:00.218Z,3.40
2017-10-05T20:01:28.446Z,2.63
2017-10-05T20:03:55.888Z,2.30
2017-10-05T20:06:23.340Z,2.50
2017-10-05T20:08:50.785Z,2.60
2017-10-05T20:11:18.247Z,5.90
2017-10-05T20:13:45.680Z,2.77
2017-10-05T20:16:15.289Z,2.43
2017-10-05T20:18:49.224Z,2.60
2017-10-05T20:21:33.313Z,2.27
2017-10-05T20:24:18.589Z,7.23
2017-10-05T20:40:13.065Z,6.93
2017-10-05T20:42:40.529Z,2.60
2017-10-05T20:45:08.000Z,2.07
2017-10-05T20:47:35.444Z,5.20
2017-10-05T20:50:02.872Z,5.13
2017-10-05T20:52:30.336Z,4.10
2017-10-05T20:54:57.780Z,5.67
2017-10-05T20:57:25.229Z,6.10
2017-10-05T20:59:52.700Z,2.10
2017-10-05T21:02:20.141Z,2.10
2017-10-05T21:04:47.600Z,7.03
2017-10-05T21:07:15.264Z,3.90
2017-10-05T21:09:42.726Z,5.23
2017-10-05T21:12:10.164Z,4.67
2017-10-05T21:14:38.397Z,3.17
2017-10-05T21:17:05.845Z,2.60
2017-10-05T21:19:33.328Z,6.07
2017-10-05T21:22:01.045Z,4.10
2017-10-05T21:24:28.485Z,3.33
2017-10-05T21:26:55.957Z,2.00
2017-10-05T21:29:23.396Z,2.43
2017-10-05T21:31:51.605Z,6.67
2017-10-05T21:34:19.069Z,2.20
2017-10-05T21:36:46.554Z,5.33
2017-10-05T21:39:13.989Z,1.90
2017-10-05T21:41:41.433Z,4.83
2017-10-05T21:44:08.901Z,4.67
2017-10-05T21:46:36.341Z,3.57
2017-10-05T21:49:03.805Z,4.00
2017-10-05T21:51:31.244Z,3.73
2017-10-05T21:53:58.709Z,5.10
2017-10-05T21:56:26.182Z,9.93
2017-10-05T21:58:53.620Z,3.60
2017-10-05T22:01:21.060Z,4.47
2017-10-05T22:03:49.306Z,6.97
2017-10-05T22:06:17.024Z,4.67
2017-10-05T22:08:44.466Z,4.83
2017-10-05T22:11:11.925Z,2.43
2017-10-05T22:13:39.605Z,4.40
2017-10-05T22:16:07.077Z,3.80
2017-10-05T22:18:34.526Z,2.37
2017-10-05T22:21:01.962Z,8.13
2017-10-05T22:23:29.816Z,5.57
2017-10-05T22:25:58.016Z,4.57
2017-10-05T22:28:25.477Z,3.83
2017-10-05T22:30:52.932Z,4.33
2017-10-05T22:33:20.370Z,3.87
2017-10-05T22:35:48.593Z,18.03
2017-10-05T22:38:16.053Z,5.13
2017-10-05T22:40:43.490Z,3.20
2017-10-05T22:43:10.949Z,4.37
2017-10-05T22:45:38.400Z,5.30
2017-10-05T22:48:05.841Z,3.13
2017-10-05T22:50:33.296Z,5.33
2017-10-05T22:53:00.732Z,2.27
2017-10-05T22:55:28.957Z,3.53
2017-10-05T22:57:56.398Z,3.80
2017-10-05T23:00:23.854Z,1.77
2017-10-05T23:02:51.288Z,3.37
2017-10-05T23:05:19.513Z,10.93
2017-10-05T23:07:46.952Z,7.50
2017-10-05T23:10:14.424Z,5.00
2017-10-05T23:12:41.861Z,6.63
2017-10-05T23:15:09.301Z,6.07
2017-10-05T23:17:36.761Z,4.33
2017-10-05T23:20:04.216Z,5.60
2017-10-05T23:22:32.417Z,2.10
2017-10-05T23:24:59.876Z,7.87
2017-10-05T23:27:27.321Z,2.90
2017-10-05T23:29:54.752Z,5.40
2017-10-05T23:32:22.980Z,6.40
2017-10-05T23:34:50.440Z,2.67
2017-10-05T23:37:17.899Z,5.37
2017-10-05T23:39:46.109Z,4.73
2017-10-05T23:42:13.565Z,4.40
2017-10-05T23:44:41.009Z,2.37
2017-10-05T23:47:08.467Z,4.03
2017-10-05T23:49:35.904Z,2.60
2017-10-05T23:52:03.359Z,5.77
2017-10-05T23:54:31.101Z,6.83
2017-10-05T23:56:58.541Z,4.10
2017-10-05T23:59:25.984Z,6.53
